Time;durP1;ratioP1;P1;durP2;ratioP2;P2;SDS_P1;SDS_P2;PMS_P1;PMS_P2;Temp;Humidity;BMP_temperature;BMP_pressure;BME280_temperature;BME280_humidity;BME280_pressure;Samples;Min_cycle;Max_cycle;Signal;HPM_P1;HPM_P2
2023/03/05 00:01:19;;;;;;;1.77;1.67;;;3.30;97.30;;;;;;5011965;28;20473;-85
2023/03/05 00:03:45;;;;;;;1.43;1.43;;;3.30;97.30;;;;;;5007016;28;20434;-84
2023/03/05 00:06:10;;;;;;;2.77;1.07;;;3.30;97.30;;;;;;5010029;28;20438;-84
2023/03/05 00:08:36;;;;;;;1.57;1.47;;;3.30;97.30;;;;;;5005570;28;20412;-84
2023/03/05 00:11:05;;;;;;;1.10;1.00;;;3.30;97.30;;;;;;5010072;28;20673;-82
2023/03/05 00:13:31;;;;;;;1.20;1.10;;;3.20;97.30;;;;;;5004030;28;20515;-84
2023/03/05 00:15:57;;;;;;;1.00;0.90;;;3.20;97.30;;;;;;5010014;28;20454;-84
2023/03/05 00:18:23;;;;;;;1.20;1.10;;;3.20;97.30;;;;;;5016170;28;20431;-84
2023/03/05 00:20:48;;;;;;;1.00;0.90;;;3.20;97.30;;;;;;5016303;28;20208;-84
2023/03/05 00:23:14;;;;;;;2.00;1.87;;;3.20;97.30;;;;;;5026389;28;20450;-85
2023/03/05 00:25:40;;;;;;;1.20;1.10;;;3.10;97.30;;;;;;5031974;28;20184;-84
2023/03/05 00:28:06;;;;;;;1.00;0.90;;;3.10;97.30;;;;;;5009065;28;20427;-84
2023/03/05 00:30:33;;;;;;;1.30;1.20;;;3.10;97.30;;;;;;5003512;28;20189;-84
2023/03/05 00:32:58;;;;;;;1.20;1.10;;;3.10;97.30;;;;;;5004740;28;20503;-84
2023/03/05 00:35:24;;;;;;;1.07;0.97;;;3.00;97.30;;;;;;5015244;28;20438;-83
2023/03/05 00:37:50;;;;;;;1.00;0.90;;;3.00;97.30;;;;;;5006886;28;20181;-83
2023/03/05 00:40:16;;;;;;;1.40;1.30;;;3.00;97.30;;;;;;5011578;28;20250;-84
2023/03/05 00:42:41;;;;;;;2.00;1.87;;;3.00;97.30;;;;;;5009788;28;20319;-84
2023/03/05 00:45:08;;;;;;;1.10;1.00;;;3.00;97.30;;;;;;5010649;28;20471;-85
2023/03/05 00:47:35;;;;;;;3.23;3.03;;;3.00;97.30;;;;;;5024246;28;20175;-84
2023/03/05 00:50:01;;;;;;;1.00;0.90;;;3.00;97.30;;;;;;5025880;28;20216;-85
2023/03/05 00:52:26;;;;;;;1.43;1.33;;;3.00;97.30;;;;;;5017195;28;20446;-84
2023/03/05 00:54:52;;;;;;;2.73;2.53;;;3.00;97.30;;;;;;5020013;28;20433;-84
2023/03/05 00:57:18;;;;;;;4.33;1.10;;;2.90;97.30;;;;;;5011437;28;20185;-84
2023/03/05 00:59:43;;;;;;;4.67;1.93;;;2.90;97.30;;;;;;5007591;28;20180;-81
2023/03/05 01:02:09;;;;;;;1.73;1.50;;;2.90;97.30;;;;;;5018389;28;20732;-84
2023/03/05 01:04:34;;;;;;;3.90;1.23;;;2.90;97.30;;;;;;5021923;28;20193;-84
2023/03/05 01:07:00;;;;;;;1.10;1.00;;;2.80;97.30;;;;;;5011785;28;20200;-83
2023/03/05 01:09:26;;;;;;;1.37;1.27;;;2.80;97.30;;;;;;5010471;28;20180;-83
2023/03/05 01:11:51;;;;;;;1.00;0.90;;;2.80;97.30;;;;;;5017543;28;20184;-83
2023/03/05 01:14:18;;;;;;;1.17;1.10;;;2.80;97.30;;;;;;5031944;28;20898;-83
2023/03/05 01:16:43;;;;;;;1.40;1.30;;;2.80;97.30;;;;;;5013923;28;20180;-85
2023/03/05 01:19:09;;;;;;;1.70;1.60;;;2.80;97.30;;;;;;5017075;28;20760;-84
2023/03/05 01:21:35;;;;;;;1.10;1.00;;;2.80;97.30;;;;;;5016204;28;20206;-84
2023/03/05 01:24:01;;;;;;;1.00;0.90;;;2.80;97.30;;;;;;5011284;28;20197;-85
2023/03/05 01:26:27;;;;;;;1.00;0.90;;;2.80;97.30;;;;;;5018190;28;20468;-83
2023/03/05 01:28:52;;;;;;;1.07;0.97;;;2.80;97.30;;;;;;5007294;28;20491;-83
2023/03/05 01:31:19;;;;;;;1.00;0.90;;;2.70;97.30;;;;;;5018761;28;20184;-80
2023/03/05 01:33:44;;;;;;;1.03;0.93;;;2.70;97.30;;;;;;5025411;28;20343;-84
2023/03/05 01:36:13;;;;;;;1.10;1.00;;;2.70;97.30;;;;;;5019361;28;20444;-84
2023/03/05 01:38:40;;;;;;;1.20;1.10;;;2.70;97.30;;;;;;5015951;28;20224;-83
2023/03/05 01:41:05;;;;;;;2.00;1.87;;;2.70;97.30;;;;;;5008152;28;20512;-84
2023/03/05 01:43:31;;;;;;;1.70;1.60;;;2.70;97.30;;;;;;5012949;28;20440;-84
2023/03/05 01:46:12;;;;;;;4.20;1.27;;;2.70;97.30;;;;;;5011564;28;20703;-83
2023/03/05 01:48:39;;;;;;;1.20;1.10;;;2.70;97.30;;;;;;5019502;28;20283;-83
2023/03/05 01:51:05;;;;;;;1.17;1.10;;;2.70;97.30;;;;;;5009959;28;20786;-85
2023/03/05 01:53:30;;;;;;;0.87;0.77;;;2.70;97.30;;;;;;5012617;28;20497;-84
2023/03/05 01:55:56;;;;;;;1.17;1.07;;;2.60;97.30;;;;;;5018664;28;20242;-83
2023/03/05 01:58:23;;;;;;;1.33;1.23;;;2.60;97.30;;;;;;5010748;28;20658;-84
2023/03/05 02:00:51;;;;;;;2.20;1.20;;;2.60;97.30;;;;;;5013820;28;20602;-83
2023/03/05 02:03:18;;;;;;;1.43;1.33;;;2.60;97.30;;;;;;5007185;28;20485;-83
2023/03/05 02:05:44;;;;;;;1.07;0.97;;;2.60;97.30;;;;;;5018897;28;20427;-84
2023/03/05 02:08:12;;;;;;;1.20;1.10;;;2.60;97.30;;;;;;5036754;28;20417;-85
2023/03/05 02:10:49;;;;;;;1.10;1.00;;;2.60;97.30;;;;;;5010635;28;20201;-85
2023/03/05 02:13:20;;;;;;;1.60;1.50;;;2.50;97.30;;;;;;5017746;28;20455;-84
2023/03/05 02:15:46;;;;;;;1.23;1.13;;;2.50;97.30;;;;;;5017017;28;20427;-85
2023/03/05 02:18:12;;;;;;;1.20;1.10;;;2.50;97.30;;;;;;5021728;28;20478;-85
2023/03/05 02:20:54;;;;;;;1.20;1.10;;;2.50;97.30;;;;;;5010298;28;20458;-84
2023/03/05 02:23:21;;;;;;;1.10;1.00;;;2.50;97.30;;;;;;5035385;28;20430;-84
2023/03/05 02:25:47;;;;;;;1.20;1.10;;;2.40;97.30;;;;;;5035212;28;20407;-85
2023/03/05 02:28:35;;;;;;;1.17;1.07;;;2.40;97.30;;;;;;5016819;28;20577;-84
2023/03/05 02:31:01;;;;;;;0.90;0.80;;;2.40;97.30;;;;;;5013529;28;20857;-85
2023/03/05 02:33:26;;;;;;;2.07;1.93;;;2.40;97.30;;;;;;5009787;28;20495;-84
2023/03/05 02:35:52;;;;;;;7.50;3.43;;;2.40;97.30;;;;;;5016056;28;20241;-85
2023/03/05 02:38:19;;;;;;;1.17;1.07;;;2.30;97.30;;;;;;5012529;28;20184;-85
2023/03/05 02:40:44;;;;;;;8.80;2.60;;;2.30;97.30;;;;;;5017631;28;20204;-84
2023/03/05 02:43:11;;;;;;;1.03;0.93;;;2.30;97.30;;;;;;5016002;28;20435;-85
2023/03/05 02:45:37;;;;;;;0.90;0.80;;;2.30;97.30;;;;;;5034779;28;20173;-85
2023/03/05 02:48:02;;;;;;;5.87;2.17;;;2.30;97.30;;;;;;5035285;28;20427;-85
2023/03/05 02:50:29;;;;;;;0.90;0.80;;;2.30;97.30;;;;;;5009977;28;20427;-84
2023/03/05 02:52:55;;;;;;;1.00;0.90;;;2.30;97.30;;;;;;5008653;28;20259;-85
2023/03/05 02:55:20;;;;;;;1.00;0.90;;;2.20;97.30;;;;;;5028984;28;20419;-85
2023/03/05 02:57:46;;;;;;;1.10;1.00;;;2.30;97.30;;;;;;5016544;28;20610;-85
2023/03/05 03:00:12;;;;;;;1.00;0.90;;;2.30;97.30;;;;;;5009050;28;20201;-85
2023/03/05 03:02:37;;;;;;;1.23;1.13;;;2.30;97.30;;;;;;5013596;28;20676;-86
2023/03/05 03:05:03;;;;;;;1.00;0.90;;;2.30;97.30;;;;;;5010094;28;20415;-85
2023/03/05 03:07:29;;;;;;;5.23;1.43;;;2.20;97.30;;;;;;5016218;28;20245;-85
2023/03/05 03:09:54;;;;;;;0.93;0.83;;;2.20;97.30;;;;;;5015986;28;20514;-85
2023/03/05 03:12:21;;;;;;;3.10;2.30;;;2.20;97.30;;;;;;5012523;28;20214;-85
2023/03/05 03:14:46;;;;;;;1.23;1.13;;;2.20;97.30;;;;;;5035340;28;20198;-85
2023/03/05 03:17:14;;;;;;;5.50;2.03;;;2.20;97.30;;;;;;5012248;28;20422;-85
2023/03/05 03:19:41;;;;;;;1.17;1.07;;;2.20;97.30;;;;;;5016875;28;20226;-84
2023/03/05 03:22:08;;;;;;;14.03;2.13;;;2.20;97.30;;;;;;5006207;28;20447;-85
2023/03/05 03:24:34;;;;;;;2.13;1.97;;;2.20;97.30;;;;;;5014208;28;20467;-85
2023/03/05 03:27:00;;;;;;;1.50;1.40;;;2.20;97.30;;;;;;5011952;28;20446;-84
2023/03/05 03:29:25;;;;;;;1.10;1.00;;;2.20;97.30;;;;;;5027057;28;20412;-85
2023/03/05 03:31:51;;;;;;;2.13;1.97;;;2.20;97.30;;;;;;5015596;28;20568;-85
2023/03/05 03:34:17;;;;;;;1.23;1.13;;;2.20;97.30;;;;;;5008539;28;20220;-85
2023/03/05 03:36:43;;;;;;;1.93;1.83;;;2.10;97.30;;;;;;5027534;28;20186;-85
2023/03/05 03:39:09;;;;;;;1.00;0.90;;;2.20;97.30;;;;;;5008315;28;20423;-85
2023/03/05 03:41:46;;;;;;;4.50;2.33;;;2.10;97.30;;;;;;5015114;28;20543;-85
2023/03/05 03:44:12;;;;;;;1.83;1.10;;;2.20;97.30;;;;;;5031415;28;20439;-84
2023/03/05 03:46:39;;;;;;;1.20;1.10;;;2.20;97.30;;;;;;5016007;28;20416;-84
2023/03/05 03:49:07;;;;;;;1.10;1.00;;;2.20;97.30;;;;;;5016207;28;20423;-85
2023/03/05 03:51:33;;;;;;;1.53;1.43;;;2.20;97.30;;;;;;5009995;28;20462;-85
2023/03/05 03:53:59;;;;;;;1.30;1.20;;;2.10;97.30;;;;;;5010052;28;20499;-85
2023/03/05 03:56:25;;;;;;;1.23;1.13;;;2.10;97.30;;;;;;5013107;28;20462;-84
2023/03/05 03:58:52;;;;;;;1.53;1.43;;;2.10;97.30;;;;;;5008633;28;20835;-84
2023/03/05 04:01:19;;;;;;;0.97;0.93;;;2.10;97.30;;;;;;5035521;28;20833;-84
2023/03/05 04:03:44;;;;;;;3.33;1.77;;;2.00;97.30;;;;;;5001686;28;20439;-85
2023/03/05 04:06:10;;;;;;;1.27;1.17;;;2.00;97.30;;;;;;5009263;28;20431;-84
2023/03/05 04:08:35;;;;;;;1.57;1.10;;;2.00;97.30;;;;;;5006627;28;20172;-84
2023/03/05 04:11:01;;;;;;;1.30;1.20;;;2.00;97.30;;;;;;5007266;28;20236;-84
2023/03/05 04:13:27;;;;;;;1.00;0.90;;;2.00;97.30;;;;;;5011478;28;20223;-85
2023/03/05 04:15:53;;;;;;;1.90;1.77;;;2.00;97.30;;;;;;5010934;28;20264;-85
2023/03/05 04:18:18;;;;;;;3.33;2.77;;;2.00;97.30;;;;;;5010761;28;20211;-84
2023/03/05 04:20:44;;;;;;;1.20;1.10;;;2.00;97.30;;;;;;5017881;28;20467;-86
2023/03/05 04:23:09;;;;;;;1.57;1.47;;;2.00;97.30;;;;;;5009524;28;20192;-85
2023/03/05 04:25:35;;;;;;;1.00;0.90;;;2.00;97.30;;;;;;5011929;28;20226;-85
2023/03/05 04:28:01;;;;;;;1.10;1.00;;;2.00;97.30;;;;;;5018991;28;20184;-85
2023/03/05 04:30:27;;;;;;;7.43;3.10;;;2.00;97.30;;;;;;5036969;28;20184;-85
2023/03/05 04:32:53;;;;;;;1.87;1.50;;;2.00;97.30;;;;;;5008217;28;20846;-85
2023/03/05 04:35:18;;;;;;;1.10;1.00;;;2.00;97.30;;;;;;5003302;28;20227;-84
2023/03/05 04:37:44;;;;;;;1.77;1.57;;;2.00;97.30;;;;;;5001574;28;20252;-86
2023/03/05 04:40:10;;;;;;;1.00;0.90;;;2.00;97.30;;;;;;5008486;28;20235;-84
2023/03/05 04:42:36;;;;;;;5.60;1.43;;;2.00;97.30;;;;;;5010035;28;20221;-84
2023/03/05 04:45:02;;;;;;;1.23;1.10;;;2.10;97.30;;;;;;5008948;28;20427;-85
2023/03/05 04:47:27;;;;;;;1.10;1.00;;;2.10;97.30;;;;;;5011369;28;20185;-85
2023/03/05 04:49:53;;;;;;;1.60;1.30;;;2.10;97.30;;;;;;5016986;28;20419;-85
2023/03/05 04:52:18;;;;;;;1.10;1.00;;;2.10;97.30;;;;;;5009476;28;20248;-84
2023/03/05 04:54:44;;;;;;;1.00;0.90;;;2.10;97.30;;;;;;5017497;28;20850;-85
2023/03/05 04:57:09;;;;;;;1.10;1.00;;;2.10;97.30;;;;;;5018502;28;20177;-85
2023/03/05 04:59:36;;;;;;;0.97;0.87;;;2.10;97.30;;;;;;5014151;28;20173;-85
2023/03/05 05:02:02;;;;;;;1.40;1.30;;;2.10;97.30;;;;;;5011282;28;20559;-85
2023/03/05 05:04:28;;;;;;;0.93;0.83;;;2.10;97.30;;;;;;5007778;28;20447;-85
2023/03/05 05:06:55;;;;;;;1.00;0.90;;;2.10;97.30;;;;;;5012146;28;20185;-85
2023/03/05 05:09:21;;;;;;;1.00;0.90;;;2.10;97.30;;;;;;5007972;28;20507;-84
2023/03/05 05:11:46;;;;;;;1.30;1.20;;;2.10;97.30;;;;;;5009267;28;20535;-85
2023/03/05 05:14:12;;;;;;;1.10;1.00;;;2.10;97.30;;;;;;5013659;28;20301;-85
2023/03/05 05:16:37;;;;;;;1.10;1.00;;;2.10;97.30;;;;;;5016697;28;20185;-85
2023/03/05 05:19:03;;;;;;;2.17;2.00;;;2.10;97.30;;;;;;5016036;28;20699;-85
2023/03/05 05:21:29;;;;;;;1.70;1.43;;;2.10;97.30;;;;;;5012024;28;20211;-85
2023/03/05 05:23:54;;;;;;;1.20;1.10;;;2.10;97.30;;;;;;5015383;28;20288;-85
2023/03/05 05:26:19;;;;;;;1.10;1.00;;;2.10;97.30;;;;;;5012163;28;20181;-85
2023/03/05 05:28:45;;;;;;;1.10;1.00;;;2.10;97.30;;;;;;5005648;28;20178;-85
2023/03/05 05:31:14;;;;;;;1.10;1.00;;;2.10;97.30;;;;;;5007482;28;20181;-85
2023/03/05 05:33:40;;;;;;;1.20;1.10;;;2.10;97.30;;;;;;5013325;28;20224;-84
2023/03/05 05:36:09;;;;;;;1.10;1.00;;;2.10;97.30;;;;;;5002977;28;20456;-83
2023/03/05 05:38:35;;;;;;;1.50;1.40;;;2.10;97.30;;;;;;5015657;28;20480;-86
2023/03/05 05:41:06;;;;;;;1.10;1.00;;;2.20;97.30;;;;;;5010635;28;20471;-85
2023/03/05 05:43:32;;;;;;;0.97;0.87;;;2.20;97.30;;;;;;5016228;28;20189;-83
2023/03/05 05:46:04;;;;;;;1.00;0.90;;;2.20;97.30;;;;;;5012687;28;20441;-85
2023/03/05 05:48:31;;;;;;;1.40;1.30;;;2.20;97.30;;;;;;5015368;28;20463;-84
2023/03/05 05:50:57;;;;;;;1.40;1.30;;;2.20;97.30;;;;;;5005542;28;20511;-84
2023/03/05 05:53:23;;;;;;;2.20;1.93;;;2.20;97.30;;;;;;5007510;28;20509;-85
2023/03/05 05:55:49;;;;;;;1.20;1.10;;;2.20;97.30;;;;;;5003401;28;20424;-85
2023/03/05 05:58:14;;;;;;;1.10;1.00;;;2.20;97.30;;;;;;5011450;28;20813;-84
2023/03/05 06:00:42;;;;;;;1.17;1.07;;;2.20;97.30;;;;;;5012626;28;20209;-85
2023/03/05 06:03:08;;;;;;;0.90;0.80;;;2.20;97.30;;;;;;5010545;28;20205;-85
2023/03/05 06:05:37;;;;;;;1.00;0.90;;;2.30;97.30;;;;;;5012090;28;20416;-84
2023/03/05 06:08:02;;;;;;;1.20;1.10;;;2.30;97.30;;;;;;5015613;28;20272;-84
2023/03/05 06:10:28;;;;;;;0.90;0.80;;;2.30;97.30;;;;;;5015926;28;20470;-85
2023/03/05 06:12:54;;;;;;;1.27;1.17;;;2.30;97.30;;;;;;5011197;28;20197;-85
2023/03/05 06:15:19;;;;;;;1.00;0.90;;;2.30;97.30;;;;;;5004384;28;20460;-85
2023/03/05 06:17:46;;;;;;;1.00;0.90;;;2.30;97.30;;;;;;5011000;28;20186;-85
2023/03/05 06:20:12;;;;;;;1.23;1.13;;;2.30;97.30;;;;;;5011862;28;20582;-85
2023/03/05 06:22:38;;;;;;;1.10;1.00;;;2.30;97.30;;;;;;5014722;28;20435;-86
2023/03/05 06:25:06;;;;;;;1.10;1.00;;;2.30;97.30;;;;;;5007770;28;20178;-85
2023/03/05 06:27:33;;;;;;;1.20;1.10;;;2.30;97.30;;;;;;5010806;28;20165;-85
2023/03/05 06:29:59;;;;;;;1.20;1.10;;;2.30;97.30;;;;;;5008309;28;20416;-85
2023/03/05 06:32:25;;;;;;;1.00;0.90;;;2.30;97.30;;;;;;5006605;28;20983;-85
2023/03/05 06:34:50;;;;;;;1.20;1.10;;;2.30;97.30;;;;;;5010646;28;20178;-83
2023/03/05 06:37:16;;;;;;;1.00;0.90;;;2.30;97.30;;;;;;5030873;28;20185;-86
2023/03/05 06:39:41;;;;;;;1.60;1.50;;;2.30;97.30;;;;;;5013430;28;20555;-83
2023/03/05 06:42:10;;;;;;;1.00;0.90;;;2.20;97.30;;;;;;5016712;28;20212;-80
2023/03/05 06:44:40;;;;;;;1.33;1.23;;;2.20;97.30;;;;;;5016142;28;20196;-83
2023/03/05 06:47:09;;;;;;;1.00;0.90;;;2.20;97.30;;;;;;5007038;28;20471;-84
2023/03/05 06:49:35;;;;;;;1.20;1.10;;;2.20;97.30;;;;;;5003094;28;20424;-86
2023/03/05 06:52:01;;;;;;;1.07;1.00;;;2.20;97.30;;;;;;5000051;28;20423;-84
2023/03/05 06:54:27;;;;;;;1.40;1.30;;;2.20;97.30;;;;;;5013880;28;21001;-85
2023/03/05 06:56:52;;;;;;;1.00;0.90;;;2.30;97.30;;;;;;5012343;28;20425;-83
2023/03/05 06:59:18;;;;;;;4.70;1.13;;;2.30;97.30;;;;;;5017658;28;20181;-84
2023/03/05 07:02:13;;;;;;;2.30;2.13;;;2.40;97.30;;;;;;5017798;28;20778;-81
2023/03/05 07:04:42;;;;;;;1.43;1.33;;;2.40;97.30;;;;;;5006455;28;20174;-81
2023/03/05 07:07:07;;;;;;;1.10;1.00;;;2.30;97.30;;;;;;5013871;28;20416;-83
2023/03/05 07:09:51;;;;;;;2.60;2.00;;;2.30;97.30;;;;;;5016518;28;20430;-85
2023/03/05 07:12:37;;;;;;;1.20;1.10;;;2.30;97.30;;;;;;5013554;28;20173;-82
2023/03/05 07:15:03;;;;;;;1.10;1.00;;;2.30;97.30;;;;;;5007479;28;20930;-84
2023/03/05 07:17:28;;;;;;;1.47;1.40;;;2.30;97.30;;;;;;4997743;28;20420;-83
2023/03/05 07:19:54;;;;;;;1.00;0.90;;;2.30;97.30;;;;;;5004837;28;20184;-84
2023/03/05 07:22:19;;;;;;;1.30;1.20;;;2.30;97.30;;;;;;4999081;28;20184;-84
2023/03/05 07:24:45;;;;;;;5.70;2.70;;;2.40;97.30;;;;;;4999563;28;20667;-84
2023/03/05 07:27:10;;;;;;;1.00;0.90;;;2.40;97.30;;;;;;5008302;28;20236;-85
2023/03/05 07:29:36;;;;;;;1.40;1.30;;;2.40;97.30;;;;;;5001763;28;20269;-84
2023/03/05 07:32:02;;;;;;;3.77;1.67;;;2.30;97.30;;;;;;5012201;28;20260;-83
2023/03/05 07:34:27;;;;;;;1.33;1.23;;;2.30;97.30;;;;;;5034071;28;20227;-85
2023/03/05 07:36:53;;;;;;;1.30;1.20;;;2.20;97.30;;;;;;5008770;28;20185;-85
2023/03/05 07:39:19;;;;;;;1.60;1.50;;;2.20;97.30;;;;;;5015140;28;20206;-85
2023/03/05 07:41:46;;;;;;;1.00;0.90;;;2.20;97.30;;;;;;5013122;28;20454;-86
2023/03/05 07:44:11;;;;;;;1.10;1.00;;;2.20;97.30;;;;;;5011157;28;20207;-87
2023/03/05 07:46:37;;;;;;;1.00;0.90;;;2.20;97.30;;;;;;5006571;28;20815;-84
2023/03/05 07:49:03;;;;;;;1.47;1.37;;;2.30;97.30;;;;;;4999505;28;20264;-84
2023/03/05 07:51:29;;;;;;;1.00;0.90;;;2.30;97.30;;;;;;5016038;28;20180;-83
2023/03/05 07:53:56;;;;;;;2.30;1.40;;;2.30;97.30;;;;;;5020378;28;20446;-85
2023/03/05 07:56:31;;;;;;;1.00;0.90;;;2.30;97.30;;;;;;5007708;28;20189;-84
2023/03/05 07:59:09;;;;;;;1.00;0.90;;;2.30;97.30;;;;;;5006620;28;20427;-84
2023/03/05 08:01:36;;;;;;;0.90;0.80;;;2.30;97.30;;;;;;5023960;28;20455;-84
2023/03/05 08:04:03;;;;;;;1.13;1.03;;;2.30;97.30;;;;;;5003791;28;20440;-83
2023/03/05 08:06:28;;;;;;;1.10;1.00;;;2.40;97.30;;;;;;5009608;28;20453;-82
2023/03/05 08:08:54;;;;;;;1.10;1.00;;;2.40;97.30;;;;;;5011960;28;21037;-83
2023/03/05 08:11:20;;;;;;;1.00;0.90;;;2.50;97.30;;;;;;5004158;28;20424;-84
2023/03/05 08:13:46;;;;;;;0.80;0.70;;;2.60;97.30;;;;;;5015621;28;20246;-83
2023/03/05 08:16:18;;;;;;;1.33;1.23;;;2.70;97.30;;;;;;5011461;28;20430;-83
2023/03/05 08:18:44;;;;;;;2.77;1.80;;;2.80;97.30;;;;;;5017495;28;20200;-83
2023/03/05 08:21:18;;;;;;;1.70;1.60;;;2.90;97.30;;;;;;5035192;28;20595;-83
2023/03/05 08:23:44;;;;;;;1.70;1.60;;;3.00;97.30;;;;;;5014675;28;20478;-83
2023/03/05 08:26:15;;;;;;;1.00;0.90;;;3.10;97.30;;;;;;5005417;28;20432;-84
2023/03/05 08:28:41;;;;;;;1.67;1.57;;;3.30;97.30;;;;;;5013210;28;20340;-83
2023/03/05 08:31:09;;;;;;;8.23;1.40;;;3.30;97.30;;;;;;5008880;28;20503;-85
2023/03/05 08:33:34;;;;;;;0.80;0.70;;;3.40;97.30;;;;;;5008737;28;20232;-83
2023/03/05 08:36:00;;;;;;;1.20;1.10;;;3.50;97.30;;;;;;5011554;28;20426;-83
2023/03/05 08:38:25;;;;;;;1.37;1.33;;;3.60;97.30;;;;;;5009198;28;20181;-83
2023/03/05 08:40:51;;;;;;;1.20;1.10;;;3.70;97.30;;;;;;5001810;28;21121;-83
2023/03/05 08:43:17;;;;;;;1.10;1.10;;;3.80;97.30;;;;;;5014578;28;20571;-84
2023/03/05 08:45:42;;;;;;;2.50;1.23;;;3.80;97.30;;;;;;5014735;28;20185;-84
2023/03/05 08:48:08;;;;;;;6.27;1.43;;;3.90;97.30;;;;;;5008974;28;20183;-84
2023/03/05 08:50:35;;;;;;;1.60;1.50;;;3.90;97.30;;;;;;5018301;28;20206;-83
2023/03/05 08:53:01;;;;;;;4.00;1.33;;;3.90;97.30;;;;;;5016892;28;20208;-83
2023/03/05 08:55:26;;;;;;;3.80;1.43;;;3.90;97.30;;;;;;5006660;28;20853;-83
2023/03/05 08:57:52;;;;;;;2.10;0.93;;;3.90;97.30;;;;;;5013377;28;20253;-84
2023/03/05 09:00:18;;;;;;;1.43;1.20;;;3.90;97.30;;;;;;5008082;28;20261;-84
2023/03/05 09:02:43;;;;;;;1.63;1.53;;;3.90;97.30;;;;;;5030548;28;20207;-84
2023/03/05 09:05:09;;;;;;;1.63;1.30;;;3.90;97.30;;;;;;5015182;28;20430;-85
2023/03/05 09:07:36;;;;;;;1.00;0.90;;;3.80;97.30;;;;;;5013150;28;20176;-87
2023/03/05 09:10:04;;;;;;;9.43;2.10;;;3.80;97.30;;;;;;5029106;28;20443;-84
2023/03/05 09:12:32;;;;;;;1.30;1.20;;;3.70;97.30;;;;;;5012975;28;20426;-83
2023/03/05 09:14:57;;;;;;;1.10;1.00;;;3.70;97.30;;;;;;5010114;28;20457;-84
2023/03/05 09:17:23;;;;;;;1.33;1.23;;;3.70;97.30;;;;;;5016732;28;20420;-84
2023/03/05 09:19:49;;;;;;;1.20;1.10;;;3.60;97.30;;;;;;5018450;28;20267;-86
2023/03/05 09:22:14;;;;;;;0.90;0.80;;;3.50;97.30;;;;;;5018216;28;20671;-85
2023/03/05 09:24:40;;;;;;;2.40;1.60;;;3.50;97.30;;;;;;5017834;28;20176;-84
2023/03/05 09:27:06;;;;;;;4.70;1.30;;;3.50;97.30;;;;;;5006591;28;20784;-84
2023/03/05 09:29:31;;;;;;;1.53;1.43;;;3.50;97.30;;;;;;5013314;28;20418;-84
2023/03/05 09:31:57;;;;;;;1.07;0.97;;;3.60;97.30;;;;;;5016462;28;20656;-85
2023/03/05 09:34:23;;;;;;;2.07;1.93;;;3.70;97.30;;;;;;5017776;28;20286;-86
2023/03/05 09:36:49;;;;;;;1.47;1.37;;;3.80;97.30;;;;;;5016218;28;20193;-86
2023/03/05 09:39:15;;;;;;;1.27;1.17;;;3.70;97.30;;;;;;5011664;28;20181;-85
2023/03/05 09:42:22;;;;;;;1.27;1.17;;;3.80;97.30;;;;;;5017449;28;20454;-85
2023/03/05 09:45:02;;;;;;;1.43;1.33;;;3.80;97.30;;;;;;5015765;28;20426;-85
2023/03/05 09:47:47;;;;;;;1.10;1.00;;;3.90;97.30;;;;;;5010196;28;20941;-85
2023/03/05 09:50:37;;;;;;;1.07;0.97;;;3.90;97.30;;;;;;5011009;28;20427;-84
2023/03/05 09:53:37;;;;;;;1.97;1.20;;;3.80;97.30;;;;;;5008586;28;20901;-83
2023/03/05 09:56:13;;;;;;;1.00;0.90;;;3.80;97.30;;;;;;5006300;28;20450;-84
2023/03/05 09:58:48;;;;;;;1.40;1.30;;;4.00;97.30;;;;;;5016708;28;20497;-83
2023/03/05 10:01:20;;;;;;;1.17;1.07;;;4.00;97.30;;;;;;5012758;28;20462;-85
2023/03/05 10:03:56;;;;;;;1.47;1.37;;;3.90;97.30;;;;;;5014194;28;20901;-84
2023/03/05 10:06:35;;;;;;;1.20;1.10;;;3.90;97.30;;;;;;5012616;28;20427;-83
2023/03/05 10:09:20;;;;;;;1.27;1.17;;;4.00;97.30;;;;;;5018625;28;20415;-83
2023/03/05 10:12:13;;;;;;;1.40;1.30;;;4.00;97.30;;;;;;5015071;28;20955;-85
2023/03/05 10:14:40;;;;;;;1.40;1.30;;;4.20;97.30;;;;;;5005949;28;20883;-84
2023/03/05 10:17:54;;;;;;;1.20;1.10;;;4.30;97.30;;;;;;5016730;28;20554;-84
2023/03/05 10:20:56;;;;;;;1.20;1.10;;;4.50;97.30;;;;;;4957119;28;20473;-85
2023/03/05 10:23:30;;;;;;;6.57;1.73;;;4.70;97.30;;;;;;5015477;28;20451;-84
2023/03/05 10:26:37;;;;;;;2.40;2.20;;;4.80;97.30;;;;;;5013632;28;20773;-85
2023/03/05 10:29:26;;;;;;;1.70;1.20;;;4.80;97.30;;;;;;5029420;28;20804;-84
2023/03/05 10:32:05;;;;;;;1.90;1.50;;;4.80;97.30;;;;;;5011445;28;20435;-83
2023/03/05 10:34:47;;;;;;;1.00;0.90;;;4.70;97.30;;;;;;5008139;28;20563;-83
2023/03/05 10:37:23;;;;;;;1.53;1.43;;;4.70;97.30;;;;;;5011460;28;20930;-84
2023/03/05 10:40:09;;;;;;;1.40;1.30;;;4.50;97.30;;;;;;5015987;28;20474;-83
2023/03/05 10:42:35;;;;;;;2.00;1.40;;;4.60;97.30;;;;;;5008212;28;20448;-85
2023/03/05 10:45:32;;;;;;;1.10;1.00;;;4.40;97.30;;;;;;5030012;28;20410;-84
2023/03/05 10:48:24;;;;;;;2.27;1.77;;;4.40;97.30;;;;;;5008388;28;20830;-85
2023/03/05 10:50:55;;;;;;;1.90;1.30;;;4.30;97.30;;;;;;5023920;28;20451;-84
2023/03/05 10:53:32;;;;;;;1.80;1.23;;;4.30;97.30;;;;;;5023101;28;20436;-85
2023/03/05 10:56:03;;;;;;;1.63;1.20;;;4.20;97.30;;;;;;5011278;28;20438;-86
2023/03/05 10:58:30;;;;;;;1.57;1.50;;;4.10;97.30;;;;;;5011255;28;20422;-86
2023/03/05 11:01:11;;;;;;;1.10;1.00;;;4.00;97.30;;;;;;5007535;28;20463;-85
2023/03/05 11:03:53;;;;;;;2.07;1.50;;;3.90;97.30;;;;;;5007201;28;20446;-85
2023/03/05 11:06:37;;;;;;;1.63;1.30;;;3.70;97.30;;;;;;5008869;28;20415;-85
2023/03/05 11:09:17;;;;;;;1.60;1.53;;;3.70;97.30;;;;;;5016815;28;21036;-86
2023/03/05 11:12:00;;;;;;;1.17;1.07;;;3.70;97.30;;;;;;5013079;28;20426;-86
2023/03/05 11:14:32;;;;;;;1.10;1.00;;;3.90;97.30;;;;;;5009735;28;20514;-83
2023/03/05 11:17:00;;;;;;;1.57;1.30;;;4.10;97.30;;;;;;5008709;28;20469;-88
2023/03/05 11:19:34;;;;;;;5.53;2.10;;;4.10;97.30;;;;;;5019146;28;20411;-85
2023/03/05 11:22:19;;;;;;;1.47;1.00;;;4.30;97.30;;;;;;5009672;28;20531;-84
2023/03/05 11:25:17;;;;;;;1.10;1.00;;;4.50;97.30;;;;;;5006634;28;20530;-87
2023/03/05 11:27:50;;;;;;;1.13;1.00;;;4.70;97.30;;;;;;5011722;28;20510;-86
2023/03/05 11:30:33;;;;;;;0.90;0.80;;;4.60;97.30;;;;;;5016014;28;20414;-86
2023/03/05 11:33:19;;;;;;;1.57;1.47;;;4.60;97.30;;;;;;5010536;28;20471;-86
2023/03/05 11:35:45;;;;;;;1.00;0.90;;;4.70;97.30;;;;;;5012950;28;20426;-85
2023/03/05 11:38:25;;;;;;;10.13;1.43;;;4.70;97.30;;;;;;5008692;28;20412;-85
2023/03/05 11:40:53;;;;;;;1.53;1.43;;;4.60;97.30;;;;;;5023280;28;20494;-87
2023/03/05 11:43:22;;;;;;;1.00;0.90;;;4.50;97.30;;;;;;5026582;28;20483;-85
2023/03/05 11:45:50;;;;;;;1.20;1.10;;;4.50;97.30;;;;;;5008468;28;20439;-85
2023/03/05 11:48:25;;;;;;;1.47;1.37;;;4.40;97.30;;;;;;5014906;28;20415;-86
2023/03/05 11:50:56;;;;;;;1.17;1.10;;;4.40;97.30;;;;;;5011783;28;20434;-84
2023/03/05 11:53:28;;;;;;;1.00;0.90;;;4.30;97.30;;;;;;5026626;28;20446;-84
2023/03/05 11:56:10;;;;;;;1.20;1.10;;;4.20;97.30;;;;;;5012756;28;20846;-84
2023/03/05 11:58:53;;;;;;;1.93;1.83;;;4.20;97.30;;;;;;5022035;28;20502;-84
2023/03/05 12:01:25;;;;;;;0.97;0.87;;;4.10;97.30;;;;;;5006843;28;20520;-84
2023/03/05 12:03:51;;;;;;;1.10;1.00;;;4.10;97.30;;;;;;5009685;28;20432;-83
2023/03/05 12:06:29;;;;;;;1.70;1.60;;;4.30;97.30;;;;;;5019249;28;20796;-84
2023/03/05 12:08:58;;;;;;;1.27;1.17;;;4.40;97.30;;;;;;5012690;28;20429;-84
2023/03/05 12:11:30;;;;;;;1.30;1.20;;;4.50;97.30;;;;;;5018771;28;20946;-84
2023/03/05 12:14:16;;;;;;;1.20;1.10;;;4.60;97.30;;;;;;5014078;28;20435;-85
2023/03/05 12:17:16;;;;;;;1.03;0.93;;;4.70;97.30;;;;;;5012084;28;20427;-85
2023/03/05 12:20:05;;;;;;;2.13;1.97;;;4.80;97.30;;;;;;4999458;28;20424;-84
2023/03/05 12:22:38;;;;;;;1.77;1.30;;;4.70;97.30;;;;;;5013039;28;20854;-84
2023/03/05 12:25:45;;;;;;;1.37;1.27;;;4.50;97.30;;;;;;5005906;28;20448;-83
2023/03/05 12:28:40;;;;;;;2.40;1.60;;;4.50;97.30;;;;;;5010201;28;20470;-85
2023/03/05 12:31:08;;;;;;;1.33;1.20;;;4.60;97.30;;;;;;5008896;28;20510;-86
2023/03/05 12:33:41;;;;;;;1.00;0.90;;;4.40;97.30;;;;;;5013459;28;20533;-85
2023/03/05 12:36:22;;;;;;;1.23;1.10;;;4.30;97.30;;;;;;5008501;28;20518;-87
2023/03/05 12:38:52;;;;;;;9.87;1.30;;;4.20;97.30;;;;;;5013208;28;20439;-85
2023/03/05 12:41:23;;;;;;;1.10;1.00;;;4.20;97.30;;;;;;5017652;28;20449;-86
2023/03/05 12:44:04;;;;;;;1.20;1.10;;;4.20;97.30;;;;;;5005983;28;20448;-86
2023/03/05 12:46:53;;;;;;;1.20;1.10;;;4.30;97.30;;;;;;5013401;28;20416;-87
2023/03/05 12:49:19;;;;;;;9.20;3.27;;;4.30;97.30;;;;;;4976541;28;20424;-87
2023/03/05 12:51:50;;;;;;;3.17;0.87;;;4.40;97.30;;;;;;5014378;28;20507;-87
2023/03/05 12:54:31;;;;;;;2.47;2.27;;;4.50;97.30;;;;;;5018291;28;20197;-87
2023/03/05 12:57:00;;;;;;;1.00;0.90;;;4.50;97.30;;;;;;5035370;28;20453;-87
2023/03/05 12:59:52;;;;;;;1.00;0.90;;;4.60;97.30;;;;;;5010316;28;20412;-87
2023/03/05 13:02:31;;;;;;;1.20;1.10;;;4.70;97.30;;;;;;5010482;28;20454;-85
2023/03/05 13:05:00;;;;;;;0.90;0.80;;;4.70;97.30;;;;;;5014476;28;20806;-86
2023/03/05 13:07:26;;;;;;;1.53;1.50;;;4.50;97.30;;;;;;5033403;28;20879;-87
2023/03/05 13:09:56;;;;;;;1.80;1.70;;;4.40;97.30;;;;;;5015184;28;20503;-85
2023/03/05 13:12:24;;;;;;;1.00;0.90;;;4.50;97.30;;;;;;5016173;28;20193;-84